createdAt,value
2022-08-01T00:00:44.519Z,84.29
2022-08-01T00:05:46.317Z,86.96
2022-08-01T00:10:47.800Z,84.97
2022-08-01T00:15:53.932Z,85.53
2022-08-01T00:20:55.858Z,85.30
2022-08-01T00:25:57.946Z,84.68
2022-08-01T00:30:59.427Z,85.84
2022-08-01T00:36:00.893Z,85.36
2022-08-01T00:41:02.435Z,86.67
2022-08-01T00:46:03.894Z,86.09
2022-08-01T00:51:05.871Z,87.33
2022-08-01T00:56:07.950Z,85.93
2022-08-01T01:01:09.501Z,86.27
2022-08-01T01:06:43.012Z,86.11
2022-08-01T01:11:53.630Z,86.14
2022-08-01T01:16:56.057Z,85.49
2022-08-01T01:22:22.735Z,85.74
2022-08-01T01:27:46.383Z,86.56
2022-08-01T01:32:50.978Z,85.95
2022-08-01T01:38:02.367Z,86.15
2022-08-01T01:43:04.055Z,85.36
2022-08-01T01:48:06.989Z,85.32
2022-08-01T01:53:15.213Z,85.59
2022-08-01T01:58:19.116Z,85.85
2022-08-01T02:03:22.062Z,86.57
2022-08-01T02:08:25.257Z,87.38
2022-08-01T02:13:27.089Z,86.79
2022-08-01T02:18:29.153Z,88.59
2022-08-01T02:23:34.953Z,87.50
2022-08-01T02:28:47.784Z,87.38
2022-08-01T02:33:57.805Z,87.70
2022-08-01T02:39:02.257Z,88.05
2022-08-01T02:44:07.738Z,86.25
2022-08-01T02:49:11.932Z,88.38
2022-08-01T02:54:18.237Z,88.83
2022-08-01T02:59:26.412Z,87.58
2022-08-01T03:04:28.804Z,87.59
2022-08-01T03:09:33.257Z,89.73
2022-08-01T03:14:37.145Z,87.50
2022-08-01T03:19:40.325Z,88.95
2022-08-01T03:24:43.883Z,88.24
2022-08-01T03:29:46.199Z,88.17
2022-08-01T03:34:47.819Z,88.16
2022-08-01T03:39:55.338Z,87.67
2022-08-01T03:45:03.564Z,86.86
2022-08-01T03:50:12.259Z,89.12
2022-08-01T03:55:17.852Z,87.65
2022-08-01T04:00:19.636Z,87.63
2022-08-01T04:05:21.409Z,90.24
2022-08-01T04:10:23.934Z,90.35
2022-08-01T04:15:25.411Z,89.44
2022-08-01T04:20:26.941Z,89.59
2022-08-01T04:25:35.919Z,88.21
2022-08-01T04:30:40.053Z,88.77
2022-08-01T04:36:02.269Z,88.25
2022-08-01T04:41:09.501Z,88.92
2022-08-01T04:46:12.631Z,87.58
2022-08-01T04:51:18.405Z,88.82
2022-08-01T04:56:21.602Z,88.21
2022-08-01T05:01:23.182Z,89.38
2022-08-01T05:06:24.668Z,89.32
2022-08-01T05:11:26.078Z,87.95
2022-08-01T05:16:27.542Z,88.19
2022-08-01T05:21:29.119Z,88.72
2022-08-01T05:26:30.523Z,88.04
2022-08-01T05:31:35.200Z,87.55
2022-08-01T05:36:38.491Z,88.27
2022-08-01T05:41:40.384Z,88.43
2022-08-01T05:46:41.843Z,88.44
2022-08-01T05:51:43.716Z,87.35
2022-08-01T05:56:45.137Z,87.65
2022-08-01T06:01:46.782Z,87.19
2022-08-01T06:06:48.617Z,85.87
2022-08-01T06:11:50.056Z,86.59
2022-08-01T06:16:51.421Z,87.04
2022-08-01T06:21:52.842Z,86.57
2022-08-01T06:26:54.412Z,87.21
2022-08-01T06:31:55.806Z,85.87
2022-08-01T06:36:57.221Z,87.09
2022-08-01T06:41:58.622Z,87.51
2022-08-01T06:47:00.050Z,85.38
2022-08-01T06:52:01.503Z,86.14
2022-08-01T06:57:06.510Z,85.56
2022-08-01T07:02:08.950Z,86.32
2022-08-01T07:07:10.612Z,86.30
2022-08-01T07:12:12.298Z,84.28
2022-08-01T07:17:13.722Z,83.93
2022-08-01T07:22:23.474Z,84.06
2022-08-01T07:27:25.956Z,83.87
2022-08-01T07:32:27.956Z,83.90
2022-08-01T07:37:45.555Z,83.37
2022-08-01T07:42:50.907Z,81.26
2022-08-01T07:47:52.335Z,81.70
2022-08-01T07:52:53.806Z,80.12
2022-08-01T07:57:55.257Z,80.96
2022-08-01T08:02:59.702Z,81.42
2022-08-01T08:08:01.244Z,80.45
2022-08-01T08:13:03.010Z,79.95
2022-08-01T08:18:04.896Z,80.03
2022-08-01T08:23:41.615Z,80.54
2022-08-01T08:28:44.756Z,79.65
2022-08-01T08:33:46.151Z,79.41
2022-08-01T08:38:47.615Z,79.10
2022-08-01T08:43:49.478Z,78.49
2022-08-01T08:48:52.543Z,77.88
2022-08-01T08:53:57.928Z,78.55
2022-08-01T08:58:59.489Z,78.12
2022-08-01T09:04:00.971Z,74.22
2022-08-01T09:09:02.773Z,77.67
2022-08-01T09:14:06.956Z,76.49
2022-08-01T09:19:16.072Z,72.95
2022-08-01T09:24:32.406Z,73.33
2022-08-01T09:29:38.183Z,74.14
2022-08-01T09:34:42.435Z,73.60
2022-08-01T09:39:46.165Z,71.55
2022-08-01T09:44:55.198Z,73.25
2022-08-01T09:49:59.415Z,72.18
2022-08-01T09:55:06.561Z,73.22
2022-08-01T10:00:35.656Z,73.42
2022-08-01T10:05:43.808Z,72.83
2022-08-01T10:11:09.161Z,71.81
2022-08-01T10:16:14.095Z,72.73
2022-08-01T10:21:56.619Z,72.63
2022-08-01T10:26:41.340Z,70.73
2022-08-01T10:31:43.106Z,71.09
2022-08-01T10:36:52.119Z,71.71
2022-08-01T10:41:56.055Z,72.52
2022-08-01T10:47:04.274Z,71.34
2022-08-01T10:52:21.303Z,71.16
2022-08-01T10:57:27.499Z,70.98
2022-08-01T11:02:32.842Z,71.17
2022-08-01T11:07:46.878Z,70.33
2022-08-01T11:12:48.939Z,70.96
2022-08-01T11:17:54.893Z,68.78
2022-08-01T11:23:05.083Z,69.21
2022-08-01T11:28:28.986Z,68.96
2022-08-01T11:33:42.369Z,70.04
2022-08-01T11:39:13.570Z,68.76
2022-08-01T11:44:20.963Z,68.78
2022-08-01T11:49:26.572Z,68.40
2022-08-01T11:54:35.274Z,68.23
2022-08-01T11:59:41.424Z,68.09
2022-08-01T12:05:05.807Z,67.20
2022-08-01T12:10:17.391Z,66.41
2022-08-01T12:15:20.809Z,65.38
2022-08-01T12:20:24.321Z,65.05
2022-08-01T12:25:25.888Z,65.64
2022-08-01T12:30:27.890Z,65.25
2022-08-01T12:35:30.626Z,66.43
2022-08-01T12:40:40.949Z,64.87
2022-08-01T12:45:54.509Z,65.67
2022-08-01T12:51:02.256Z,66.54
2022-08-01T12:56:03.970Z,66.60
2022-08-01T13:01:12.979Z,66.08
2022-08-01T13:06:17.930Z,63.72
2022-08-01T13:18:18.708Z,64.56
2022-08-01T13:24:02.666Z,65.99
2022-08-01T13:28:42.997Z,65.87
2022-08-01T13:34:00.018Z,65.25
2022-08-01T13:39:20.823Z,64.93
2022-08-01T13:44:22.341Z,65.00
2022-08-01T13:49:23.781Z,64.98
2022-08-01T13:54:25.670Z,65.09
2022-08-01T13:59:27.154Z,65.52
2022-08-01T14:04:28.693Z,64.85
2022-08-01T14:09:32.565Z,63.19
2022-08-01T14:14:34.160Z,62.92
2022-08-01T14:19:38.899Z,64.07
2022-08-01T14:24:41.153Z,64.08
2022-08-01T14:30:02.838Z,63.68
2022-08-01T14:35:06.399Z,64.67
2022-08-01T14:40:11.485Z,65.00
2022-08-01T14:45:14.369Z,64.87
2022-08-01T14:50:16.775Z,62.84
2022-08-01T14:55:18.854Z,63.25
2022-08-01T15:00:20.931Z,64.21
2022-08-01T15:05:22.453Z,65.04
2022-08-01T15:10:24.923Z,65.21
2022-08-01T15:15:27.623Z,61.59
2022-08-01T15:20:29.162Z,62.12
2022-08-01T15:25:40.399Z,62.72
2022-08-01T15:30:43.062Z,61.48
2022-08-01T15:35:44.611Z,61.78
2022-08-01T15:40:46.010Z,61.18
2022-08-01T15:45:48.629Z,63.61
2022-08-01T15:50:50.970Z,61.92
2022-08-01T15:55:52.915Z,61.30
2022-08-01T16:00:54.429Z,61.90
2022-08-01T16:05:55.954Z,62.30
2022-08-01T16:10:57.435Z,63.18
2022-08-01T16:15:59.559Z,62.07
2022-08-01T16:21:01.981Z,62.48
2022-08-01T16:26:03.450Z,62.12
2022-08-01T16:31:09.640Z,61.92
2022-08-01T16:36:26.487Z,63.04
2022-08-01T16:41:27.913Z,61.57
2022-08-01T16:46:29.443Z,62.57
2022-08-01T16:51:32.579Z,63.28
2022-08-01T16:56:34.473Z,61.40
2022-08-01T17:01:59.167Z,61.22
2022-08-01T17:06:57.892Z,62.55
2022-08-01T17:11:59.315Z,62.13
2022-08-01T17:17:00.857Z,61.91
2022-08-01T17:22:02.318Z,63.07
2022-08-01T17:27:05.046Z,62.39
2022-08-01T17:32:07.930Z,63.34
2022-08-01T17:37:10.316Z,62.68
2022-08-01T17:42:12.525Z,61.71
2022-08-01T17:47:28.827Z,62.14
2022-08-01T17:52:35.791Z,61.42
2022-08-01T17:57:37.218Z,62.47
2022-08-01T18:02:38.870Z,62.26
2022-08-01T18:08:01.086Z,62.95
2022-08-01T18:13:03.622Z,63.28
2022-08-01T18:18:05.271Z,63.70
2022-08-01T18:23:09.883Z,63.88
2022-08-01T18:28:19.565Z,63.78
2022-08-01T18:33:32.625Z,64.38
2022-08-01T18:38:35.187Z,64.28
2022-08-01T18:43:40.407Z,64.66
2022-08-01T18:48:42.054Z,64.57
2022-08-01T18:53:43.502Z,64.66
2022-08-01T18:58:48.438Z,64.83
2022-08-01T19:03:49.948Z,64.73
2022-08-01T19:08:55.694Z,64.95
2022-08-01T19:13:58.806Z,65.05
2022-08-01T19:19:04.523Z,65.27
2022-08-01T19:24:23.622Z,65.08
2022-08-01T19:29:35.410Z,65.32
2022-08-01T19:34:49.768Z,65.14
2022-08-01T19:39:51.744Z,64.76
2022-08-01T19:44:54.075Z,65.29
2022-08-01T19:49:55.530Z,65.09
2022-08-01T19:54:57.895Z,65.31
2022-08-01T20:00:01.999Z,65.09
2022-08-01T20:05:03.635Z,66.08
2022-08-01T20:10:05.528Z,67.24
2022-08-01T20:15:07.829Z,67.46
2022-08-01T20:20:10.254Z,66.75
2022-08-01T20:25:12.577Z,67.02
2022-08-01T20:30:14.620Z,66.82
2022-08-01T20:35:16.276Z,70.30
2022-08-01T20:40:18.682Z,67.57
2022-08-01T20:45:27.505Z,69.39
2022-08-01T20:50:52.895Z,69.34
2022-08-01T20:56:24.874Z,71.91
2022-08-01T21:01:33.842Z,72.86
2022-08-01T21:06:45.115Z,72.68
2022-08-01T21:11:57.089Z,71.46
2022-08-01T21:17:03.568Z,69.53
2022-08-01T21:22:11.925Z,70.85
2022-08-01T21:27:17.371Z,71.22
2022-08-01T21:32:22.013Z,72.04
2022-08-01T21:37:23.499Z,73.19
2022-08-01T21:42:27.668Z,72.87
2022-08-01T21:47:29.993Z,73.70
2022-08-01T21:52:40.998Z,72.51
2022-08-01T21:57:54.579Z,72.93
2022-08-01T22:03:23.430Z,73.19
2022-08-01T22:08:36.952Z,73.06
2022-08-01T22:13:38.581Z,73.28
2022-08-01T22:18:40.134Z,72.14
2022-08-01T22:23:42.599Z,73.58
2022-08-01T22:28:44.462Z,74.51
2022-08-01T22:33:47.384Z,72.40
2022-08-01T22:38:48.921Z,72.26
2022-08-01T22:43:53.127Z,75.29
2022-08-01T22:49:01.831Z,75.70
2022-08-01T22:54:11.441Z,76.58
2022-08-01T22:59:16.337Z,76.00
2022-08-01T23:04:33.199Z,77.89
2022-08-01T23:09:48.070Z,76.88
2022-08-01T23:14:57.859Z,76.14
2022-08-01T23:20:05.601Z,77.36
2022-08-01T23:25:12.551Z,79.33
2022-08-01T23:30:14.480Z,76.59
2022-08-01T23:35:15.882Z,77.60
2022-08-01T23:40:18.365Z,77.38
2022-08-01T23:45:20.862Z,77.66
2022-08-01T23:50:22.687Z,78.80
2022-08-01T23:55:35.040Z,77.09
